sensor_id;sensor_type;location;lat;lon;timestamp;pressure;altitude;pressure_sealevel;temperature;humidity
5872;BME280;2962;51.312;7.378;2023-06-22T00:00:50;97737.00;;;20.19;100.00
5872;BME280;2962;51.312;7.378;2023-06-22T00:03:20;97740.53;;;20.20;100.00
5872;BME280;2962;51.312;7.378;2023-06-22T00:05:46;97738.03;;;20.06;100.00
5872;BME280;2962;51.312;7.378;2023-06-22T00:08:12;97729.03;;;20.21;100.00
5872;BME280;2962;51.312;7.378;2023-06-22T00:10:37;97729.13;;;20.18;100.00
5872;BME280;2962;51.312;7.378;2023-06-22T00:13:03;97738.63;;;20.17;100.00
5872;BME280;2962;51.312;7.378;2023-06-22T00:15:28;97728.56;;;20.07;100.00
5872;BME280;2962;51.312;7.378;2023-06-22T00:17:54;97732.94;;;20.04;100.00
5872;BME280;2962;51.312;7.378;2023-06-22T00:20:20;97728.69;;;19.99;100.00
5872;BME280;2962;51.312;7.378;2023-06-22T00:22:45;97735.78;;;20.00;100.00
5872;BME280;2962;51.312;7.378;2023-06-22T00:25:12;97735.06;;;19.96;100.00
5872;BME280;2962;51.312;7.378;2023-06-22T00:27:38;97731.94;;;19.94;100.00
5872;BME280;2962;51.312;7.378;2023-06-22T00:30:03;97732.81;;;19.91;100.00
5872;BME280;2962;51.312;7.378;2023-06-22T00:32:29;97717.13;;;19.85;100.00
5872;BME280;2962;51.312;7.378;2023-06-22T00:34:54;97717.69;;;19.76;100.00
5872;BME280;2962;51.312;7.378;2023-06-22T00:37:19;97697.81;;;19.58;100.00
5872;BME280;2962;51.312;7.378;2023-06-22T00:39:47;97728.06;;;19.68;100.00
5872;BME280;2962;51.312;7.378;2023-06-22T00:42:13;97732.41;;;19.69;100.00
5872;BME280;2962;51.312;7.378;2023-06-22T00:44:39;97724.22;;;19.62;100.00
5872;BME280;2962;51.312;7.378;2023-06-22T00:47:04;97718.97;;;19.44;100.00
5872;BME280;2962;51.312;7.378;2023-06-22T00:49:30;97723.31;;;19.45;100.00
5872;BME280;2962;51.312;7.378;2023-06-22T00:51:57;97721.13;;;19.33;100.00
5872;BME280;2962;51.312;7.378;2023-06-22T00:54:22;97722.75;;;19.31;100.00
5872;BME280;2962;51.312;7.378;2023-06-22T00:56:56;97723.31;;;19.22;100.00
5872;BME280;2962;51.312;7.378;2023-06-22T00:59:23;97731.50;;;19.25;100.00
5872;BME280;2962;51.312;7.378;2023-06-22T01:01:49;97736.81;;;19.40;100.00
5872;BME280;2962;51.312;7.378;2023-06-22T01:04:14;97728.19;;;19.38;100.00
5872;BME280;2962;51.312;7.378;2023-06-22T01:06:52;97724.44;;;19.24;100.00
5872;BME280;2962;51.312;7.378;2023-06-22T01:09:22;97713.13;;;19.15;100.00
5872;BME280;2962;51.312;7.378;2023-06-22T01:12:04;97728.50;;;19.16;100.00
5872;BME280;2962;51.312;7.378;2023-06-22T01:14:43;97728.22;;;19.11;100.00
5872;BME280;2962;51.312;7.378;2023-06-22T01:17:12;97726.22;;;19.11;100.00
5872;BME280;2962;51.312;7.378;2023-06-22T01:19:46;97733.31;;;19.12;100.00
5872;BME280;2962;51.312;7.378;2023-06-22T01:22:21;97727.78;;;19.12;100.00
5872;BME280;2962;51.312;7.378;2023-06-22T01:25:12;97727.47;;;19.07;100.00
5872;BME280;2962;51.312;7.378;2023-06-22T01:30:40;97729.13;;;19.00;100.00
5872;BME280;2962;51.312;7.378;2023-06-22T01:33:06;97723.31;;;18.95;100.00
5872;BME280;2962;51.312;7.378;2023-06-22T01:35:33;97716.94;;;18.98;100.00
5872;BME280;2962;51.312;7.378;2023-06-22T01:37:59;97701.16;;;18.98;100.00
5872;BME280;2962;51.312;7.378;2023-06-22T01:40:24;97703.84;;;19.02;100.00
5872;BME280;2962;51.312;7.378;2023-06-22T01:42:51;97711.88;;;19.20;100.00
5872;BME280;2962;51.312;7.378;2023-06-22T01:45:17;97689.94;;;19.09;100.00
5872;BME280;2962;51.312;7.378;2023-06-22T01:47:43;97706.34;;;19.20;100.00
5872;BME280;2962;51.312;7.378;2023-06-22T01:50:09;97698.13;;;19.16;100.00
5872;BME280;2962;51.312;7.378;2023-06-22T01:52:35;97703.22;;;19.18;100.00
5872;BME280;2962;51.312;7.378;2023-06-22T01:55:00;97703.97;;;19.22;100.00
5872;BME280;2962;51.312;7.378;2023-06-22T01:57:26;97696.56;;;19.15;100.00
5872;BME280;2962;51.312;7.378;2023-06-22T01:59:59;97703.09;;;19.25;100.00
5872;BME280;2962;51.312;7.378;2023-06-22T02:02:27;97701.97;;;19.22;100.00
5872;BME280;2962;51.312;7.378;2023-06-22T02:05:05;97700.16;;;19.12;100.00
5872;BME280;2962;51.312;7.378;2023-06-22T02:07:34;97708.81;;;19.14;100.00
5872;BME280;2962;51.312;7.378;2023-06-22T02:10:04;97703.81;;;19.06;100.00
5872;BME280;2962;51.312;7.378;2023-06-22T02:12:31;97688.56;;;18.97;100.00
5872;BME280;2962;51.312;7.378;2023-06-22T02:14:59;97702.25;;;19.05;100.00
5872;BME280;2962;51.312;7.378;2023-06-22T02:17:26;97693.97;;;19.05;100.00
5872;BME280;2962;51.312;7.378;2023-06-22T02:19:51;97702.25;;;19.05;100.00
5872;BME280;2962;51.312;7.378;2023-06-22T02:22:17;97692.16;;;18.94;100.00
5872;BME280;2962;51.312;7.378;2023-06-22T02:24:43;97692.41;;;19.03;100.00
5872;BME280;2962;51.312;7.378;2023-06-22T02:27:08;97682.31;;;18.93;100.00
5872;BME280;2962;51.312;7.378;2023-06-22T02:29:33;97686.56;;;18.98;100.00
5872;BME280;2962;51.312;7.378;2023-06-22T02:31:59;97691.25;;;19.01;100.00
5872;BME280;2962;51.312;7.378;2023-06-22T02:34:24;97693.34;;;18.93;100.00
5872;BME280;2962;51.312;7.378;2023-06-22T02:36:50;97678.09;;;18.85;100.00
5872;BME280;2962;51.312;7.378;2023-06-22T02:39:19;97684.19;;;18.73;100.00
5872;BME280;2962;51.312;7.378;2023-06-22T02:41:45;97681.97;;;18.61;100.00
5872;BME280;2962;51.312;7.378;2023-06-22T02:44:10;97675.41;;;18.51;100.00
5872;BME280;2962;51.312;7.378;2023-06-22T02:46:35;97681.59;;;18.59;100.00
5872;BME280;2962;51.312;7.378;2023-06-22T02:49:01;97670.31;;;18.49;100.00
5872;BME280;2962;51.312;7.378;2023-06-22T02:51:26;97679.72;;;18.52;100.00
5872;BME280;2962;51.312;7.378;2023-06-22T02:53:51;97659.75;;;18.41;100.00
5872;BME280;2962;51.312;7.378;2023-06-22T02:56:22;97673.91;;;18.46;100.00
5872;BME280;2962;51.312;7.378;2023-06-22T02:58:50;97673.03;;;18.53;100.00
5872;BME280;2962;51.312;7.378;2023-06-22T03:01:16;97674.97;;;18.52;100.00
5872;BME280;2962;51.312;7.378;2023-06-22T03:03:42;97667.13;;;18.51;100.00
5872;BME280;2962;51.312;7.378;2023-06-22T03:06:07;97673.50;;;18.44;100.00
5872;BME280;2962;51.312;7.378;2023-06-22T03:08:33;97661.09;;;18.29;100.00
5872;BME280;2962;51.312;7.378;2023-06-22T03:10:58;97662.69;;;18.30;100.00
5872;BME280;2962;51.312;7.378;2023-06-22T03:13:23;97667.34;;;18.33;100.00
5872;BME280;2962;51.312;7.378;2023-06-22T03:15:49;97652.00;;;18.32;100.00
5872;BME280;2962;51.312;7.378;2023-06-22T03:18:14;97663.22;;;18.48;100.00
5872;BME280;2962;51.312;7.378;2023-06-22T03:20:41;97651.91;;;18.39;100.00
5872;BME280;2962;51.312;7.378;2023-06-22T03:23:06;97641.63;;;18.43;100.00
5872;BME280;2962;51.312;7.378;2023-06-22T03:25:31;97637.66;;;18.44;100.00
5872;BME280;2962;51.312;7.378;2023-06-22T03:27:58;97639.59;;;18.47;100.00
5872;BME280;2962;51.312;7.378;2023-06-22T03:30:23;97623.66;;;18.59;100.00
5872;BME280;2962;51.312;7.378;2023-06-22T03:32:49;97630.69;;;18.63;100.00
5872;BME280;2962;51.312;7.378;2023-06-22T03:35:14;97650.59;;;18.78;100.00
5872;BME280;2962;51.312;7.378;2023-06-22T03:37:40;97641.44;;;18.85;100.00
5872;BME280;2962;51.312;7.378;2023-06-22T03:40:05;97627.19;;;18.86;100.00
5872;BME280;2962;51.312;7.378;2023-06-22T03:42:31;97642.03;;;18.96;100.00
5872;BME280;2962;51.312;7.378;2023-06-22T03:44:56;97646.66;;;19.02;100.00
5872;BME280;2962;51.312;7.378;2023-06-22T03:47:22;97641.63;;;18.97;100.00
5872;BME280;2962;51.312;7.378;2023-06-22T03:49:47;97655.84;;;18.96;100.00
5872;BME280;2962;51.312;7.378;2023-06-22T03:52:12;97644.81;;;18.96;100.00
5872;BME280;2962;51.312;7.378;2023-06-22T03:54:38;97643.00;;;18.86;100.00
5872;BME280;2962;51.312;7.378;2023-06-22T03:57:03;97645.94;;;18.98;100.00
5872;BME280;2962;51.312;7.378;2023-06-22T03:59:28;97640.53;;;18.91;100.00
5872;BME280;2962;51.312;7.378;2023-06-22T04:01:54;97625.66;;;18.85;100.00
5872;BME280;2962;51.312;7.378;2023-06-22T04:04:19;97644.03;;;18.95;100.00
5872;BME280;2962;51.312;7.378;2023-06-22T04:06:45;97627.41;;;18.99;100.00
5872;BME280;2962;51.312;7.378;2023-06-22T04:09:10;97617.19;;;18.96;100.00
5872;BME280;2962;51.312;7.378;2023-06-22T04:11:36;97634.06;;;19.01;100.00
5872;BME280;2962;51.312;7.378;2023-06-22T04:14:01;97623.06;;;18.98;100.00
5872;BME280;2962;51.312;7.378;2023-06-22T04:16:26;97633.50;;;19.10;100.00
5872;BME280;2962;51.312;7.378;2023-06-22T04:18:52;97626.59;;;18.98;100.00
5872;BME280;2962;51.312;7.378;2023-06-22T04:21:17;97635.16;;;19.08;100.00
5872;BME280;2962;51.312;7.378;2023-06-22T04:23:44;97647.31;;;19.10;100.00
5872;BME280;2962;51.312;7.378;2023-06-22T04:26:11;97644.50;;;19.14;100.00
5872;BME280;2962;51.312;7.378;2023-06-22T04:28:36;97646.84;;;19.15;100.00
5872;BME280;2962;51.312;7.378;2023-06-22T04:31:02;97644.25;;;19.28;100.00
5872;BME280;2962;51.312;7.378;2023-06-22T04:33:28;97636.75;;;19.28;100.00
5872;BME280;2962;51.312;7.378;2023-06-22T04:35:55;97641.72;;;19.14;100.00
5872;BME280;2962;51.312;7.378;2023-06-22T04:38:22;97645.97;;;19.22;100.00
5872;BME280;2962;51.312;7.378;2023-06-22T04:40:47;97650.16;;;19.30;100.00
5872;BME280;2962;51.312;7.378;2023-06-22T04:43:13;97642.72;;;19.27;100.00
5872;BME280;2962;51.312;7.378;2023-06-22T04:45:38;97639.09;;;19.30;100.00
5872;BME280;2962;51.312;7.378;2023-06-22T04:48:04;97619.66;;;19.37;100.00
5872;BME280;2962;51.312;7.378;2023-06-22T04:50:30;97632.00;;;19.29;100.00
5872;BME280;2962;51.312;7.378;2023-06-22T04:52:55;97626.78;;;19.35;100.00
5872;BME280;2962;51.312;7.378;2023-06-22T04:55:20;97625.63;;;19.32;100.00
5872;BME280;2962;51.312;7.378;2023-06-22T04:57:46;97632.41;;;19.51;100.00
5872;BME280;2962;51.312;7.378;2023-06-22T05:00:16;97638.91;;;19.41;100.00
5872;BME280;2962;51.312;7.378;2023-06-22T05:02:43;97639.25;;;19.43;100.00
5872;BME280;2962;51.312;7.378;2023-06-22T05:05:09;97633.19;;;19.51;100.00
5872;BME280;2962;51.312;7.378;2023-06-22T05:07:39;97642.75;;;19.47;100.00
5872;BME280;2962;51.312;7.378;2023-06-22T05:10:07;97649.88;;;19.44;100.00
5872;BME280;2962;51.312;7.378;2023-06-22T05:12:33;97651.41;;;19.49;100.00
5872;BME280;2962;51.312;7.378;2023-06-22T05:14:58;97646.94;;;19.55;100.00
5872;BME280;2962;51.312;7.378;2023-06-22T05:17:24;97638.56;;;19.59;100.00
5872;BME280;2962;51.312;7.378;2023-06-22T05:19:50;97638.16;;;19.60;100.00
5872;BME280;2962;51.312;7.378;2023-06-22T05:22:15;97647.19;;;19.64;100.00
5872;BME280;2962;51.312;7.378;2023-06-22T05:24:41;97641.88;;;19.73;100.00
5872;BME280;2962;51.312;7.378;2023-06-22T05:27:06;97645.09;;;19.92;100.00
5872;BME280;2962;51.312;7.378;2023-06-22T05:29:31;97647.06;;;20.11;100.00
5872;BME280;2962;51.312;7.378;2023-06-22T05:31:57;97648.03;;;20.21;100.00
5872;BME280;2962;51.312;7.378;2023-06-22T05:34:22;97647.81;;;20.32;100.00
5872;BME280;2962;51.312;7.378;2023-06-22T05:36:47;97638.50;;;20.42;100.00
5872;BME280;2962;51.312;7.378;2023-06-22T05:39:13;97634.78;;;20.48;100.00
5872;BME280;2962;51.312;7.378;2023-06-22T05:41:39;97637.09;;;20.70;100.00
5872;BME280;2962;51.312;7.378;2023-06-22T05:44:04;97636.31;;;20.69;100.00
5872;BME280;2962;51.312;7.378;2023-06-22T05:46:29;97637.88;;;20.70;100.00
5872;BME280;2962;51.312;7.378;2023-06-22T05:48:55;97639.09;;;20.69;100.00
5872;BME280;2962;51.312;7.378;2023-06-22T05:51:20;97639.97;;;20.46;100.00
5872;BME280;2962;51.312;7.378;2023-06-22T05:53:45;97647.47;;;20.30;100.00
5872;BME280;2962;51.312;7.378;2023-06-22T05:56:14;97650.81;;;20.21;100.00
5872;BME280;2962;51.312;7.378;2023-06-22T05:58:40;97649.19;;;20.23;100.00
5872;BME280;2962;51.312;7.378;2023-06-22T06:01:05;97658.63;;;20.26;100.00
5872;BME280;2962;51.312;7.378;2023-06-22T06:03:30;97645.19;;;20.24;100.00
5872;BME280;2962;51.312;7.378;2023-06-22T06:05:56;97658.25;;;20.24;100.00
5872;BME280;2962;51.312;7.378;2023-06-22T06:08:21;97658.25;;;20.24;100.00
5872;BME280;2962;51.312;7.378;2023-06-22T06:10:46;97647.56;;;20.26;100.00
5872;BME280;2962;51.312;7.378;2023-06-22T06:13:12;97650.56;;;20.32;100.00
5872;BME280;2962;51.312;7.378;2023-06-22T06:15:37;97644.13;;;20.38;100.00
5872;BME280;2962;51.312;7.378;2023-06-22T06:18:03;97641.00;;;20.36;100.00
5872;BME280;2962;51.312;7.378;2023-06-22T06:20:30;97639.16;;;20.50;100.00
5872;BME280;2962;51.312;7.378;2023-06-22T06:22:56;97642.72;;;20.66;100.00
5872;BME280;2962;51.312;7.378;2023-06-22T06:25:22;97649.16;;;20.96;100.00
5872;BME280;2962;51.312;7.378;2023-06-22T06:27:49;97644.13;;;21.07;100.00
5872;BME280;2962;51.312;7.378;2023-06-22T06:30:16;97635.13;;;21.36;100.00
5872;BME280;2962;51.312;7.378;2023-06-22T06:32:43;97631.13;;;21.53;100.00
5872;BME280;2962;51.312;7.378;2023-06-22T06:35:10;97628.56;;;21.59;100.00
5872;BME280;2962;51.312;7.378;2023-06-22T06:37:37;97638.03;;;21.61;100.00
5872;BME280;2962;51.312;7.378;2023-06-22T06:40:06;97639.75;;;21.55;100.00
5872;BME280;2962;51.312;7.378;2023-06-22T06:42:47;97642.28;;;21.50;100.00
5872;BME280;2962;51.312;7.378;2023-06-22T06:45:16;97647.78;;;21.66;100.00
5872;BME280;2962;51.312;7.378;2023-06-22T06:47:42;97641.63;;;21.45;100.00
5872;BME280;2962;51.312;7.378;2023-06-22T06:50:08;97643.25;;;21.43;100.00
5872;BME280;2962;51.312;7.378;2023-06-22T06:52:33;97641.78;;;21.22;100.00
5872;BME280;2962;51.312;7.378;2023-06-22T06:54:59;97637.63;;;21.14;100.00
5872;BME280;2962;51.312;7.378;2023-06-22T06:57:25;97631.16;;;21.04;100.00
5872;BME280;2962;51.312;7.378;2023-06-22T06:59:54;97638.31;;;21.02;100.00
5872;BME280;2962;51.312;7.378;2023-06-22T07:02:21;97637.53;;;21.01;100.00
5872;BME280;2962;51.312;7.378;2023-06-22T07:04:46;97634.69;;;20.88;100.00
5872;BME280;2962;51.312;7.378;2023-06-22T07:07:12;97638.84;;;20.80;100.00
5872;BME280;2962;51.312;7.378;2023-06-22T07:09:37;97634.41;;;20.83;100.00
5872;BME280;2962;51.312;7.378;2023-06-22T07:12:02;97642.31;;;20.68;100.00
5872;BME280;2962;51.312;7.378;2023-06-22T07:14:28;97631.66;;;20.66;100.00
5872;BME280;2962;51.312;7.378;2023-06-22T07:16:53;97629.47;;;20.58;100.00
5872;BME280;2962;51.312;7.378;2023-06-22T07:19:24;97619.78;;;20.50;100.00
5872;BME280;2962;51.312;7.378;2023-06-22T07:21:50;97610.84;;;20.42;100.00
5872;BME280;2962;51.312;7.378;2023-06-22T07:24:16;97616.25;;;20.49;100.00
5872;BME280;2962;51.312;7.378;2023-06-22T07:26:41;97625.56;;;20.55;100.00
5872;BME280;2962;51.312;7.378;2023-06-22T07:29:10;97626.00;;;20.54;100.00
5872;BME280;2962;51.312;7.378;2023-06-22T07:31:36;97626.56;;;20.65;100.00
5872;BME280;2962;51.312;7.378;2023-06-22T07:34:01;97618.50;;;20.70;100.00
5872;BME280;2962;51.312;7.378;2023-06-22T07:36:28;97624.28;;;20.60;100.00
5872;BME280;2962;51.312;7.378;2023-06-22T07:38:55;97626.81;;;20.70;100.00
5872;BME280;2962;51.312;7.378;2023-06-22T07:41:20;97621.19;;;20.74;100.00
5872;BME280;2962;51.312;7.378;2023-06-22T07:43:45;97616.50;;;20.71;100.00
5872;BME280;2962;51.312;7.378;2023-06-22T07:46:11;97613.16;;;20.80;100.00
5872;BME280;2962;51.312;7.378;2023-06-22T07:48:37;97603.56;;;20.68;100.00
5872;BME280;2962;51.312;7.378;2023-06-22T07:51:02;97602.31;;;20.85;100.00
5872;BME280;2962;51.312;7.378;2023-06-22T07:53:27;97603.00;;;21.22;100.00
5872;BME280;2962;51.312;7.378;2023-06-22T07:55:53;97603.66;;;21.72;100.00
5872;BME280;2962;51.312;7.378;2023-06-22T07:58:18;97600.63;;;21.95;100.00
5872;BME280;2962;51.312;7.378;2023-06-22T08:00:45;97597.44;;;22.09;100.00
5872;BME280;2962;51.312;7.378;2023-06-22T08:03:11;97597.19;;;22.46;100.00
5872;BME280;2962;51.312;7.378;2023-06-22T08:05:36;97582.69;;;22.89;100.00
5872;BME280;2962;51.312;7.378;2023-06-22T08:08:01;97574.53;;;23.20;100.00
5872;BME280;2962;51.312;7.378;2023-06-22T08:10:27;97581.59;;;23.69;100.00
5872;BME280;2962;51.312;7.378;2023-06-22T08:12:52;97579.00;;;24.27;100.00
5872;BME280;2962;51.312;7.378;2023-06-22T08:15:18;97582.06;;;24.51;100.00
5872;BME280;2962;51.312;7.378;2023-06-22T08:17:44;97576.81;;;24.22;100.00
5872;BME280;2962;51.312;7.378;2023-06-22T08:20:11;97567.09;;;23.96;100.00
5872;BME280;2962;51.312;7.378;2023-06-22T08:22:37;97570.22;;;23.63;100.00
5872;BME280;2962;51.312;7.378;2023-06-22T08:25:03;97560.44;;;23.36;100.00
5872;BME280;2962;51.312;7.378;2023-06-22T08:27:32;97542.84;;;23.18;100.00
5872;BME280;2962;51.312;7.378;2023-06-22T08:29:58;97550.75;;;23.63;100.00
5872;BME280;2962;51.312;7.378;2023-06-22T08:32:25;97560.75;;;24.26;100.00
5872;BME280;2962;51.312;7.378;2023-06-22T08:34:52;97558.13;;;24.63;100.00
5872;BME280;2962;51.312;7.378;2023-06-22T08:37:17;97563.75;;;24.81;100.00
5872;BME280;2962;51.312;7.378;2023-06-22T08:39:42;97567.22;;;25.13;100.00
5872;BME280;2962;51.312;7.378;2023-06-22T08:42:08;97563.78;;;25.09;100.00
5872;BME280;2962;51.312;7.378;2023-06-22T08:44:33;97560.28;;;24.59;100.00
5872;BME280;2962;51.312;7.378;2023-06-22T08:46:59;97550.31;;;24.40;100.00
5872;BME280;2962;51.312;7.378;2023-06-22T08:49:24;97539.38;;;24.64;100.00
5872;BME280;2962;51.312;7.378;2023-06-22T08:51:49;97545.19;;;24.97;100.00
5872;BME280;2962;51.312;7.378;2023-06-22T08:54:17;97531.28;;;25.52;100.00
5872;BME280;2962;51.312;7.378;2023-06-22T08:56:42;97525.72;;;25.15;100.00
5872;BME280;2962;51.312;7.378;2023-06-22T08:59:09;97518.75;;;25.38;100.00
5872;BME280;2962;51.312;7.378;2023-06-22T09:01:34;97464.34;;;25.52;100.00
5872;BME280;2962;51.312;7.378;2023-06-22T09:03:59;97519.16;;;26.34;100.00
5872;BME280;2962;51.312;7.378;2023-06-22T09:06:25;97523.94;;;26.76;100.00
5872;BME280;2962;51.312;7.378;2023-06-22T09:08:50;97518.94;;;27.04;100.00
5872;BME280;2962;51.312;7.378;2023-06-22T09:11:15;97527.13;;;27.32;100.00
5872;BME280;2962;51.312;7.378;2023-06-22T09:13:41;97518.66;;;27.41;100.00
5872;BME280;2962;51.312;7.378;2023-06-22T09:16:07;97516.41;;;27.98;100.00
5872;BME280;2962;51.312;7.378;2023-06-22T09:18:34;97517.31;;;28.40;100.00
5872;BME280;2962;51.312;7.378;2023-06-22T09:20:59;97512.91;;;28.68;100.00
5872;BME280;2962;51.312;7.378;2023-06-22T09:23:24;97502.81;;;28.97;100.00
5872;BME280;2962;51.312;7.378;2023-06-22T09:25:50;97498.44;;;29.11;100.00
5872;BME280;2962;51.312;7.378;2023-06-22T09:28:15;97507.25;;;29.24;100.00
5872;BME280;2962;51.312;7.378;2023-06-22T09:30:40;97509.34;;;29.29;100.00
5872;BME280;2962;51.312;7.378;2023-06-22T09:33:06;97500.16;;;29.08;100.00
5872;BME280;2962;51.312;7.378;2023-06-22T09:35:31;97482.28;;;29.26;100.00
5872;BME280;2962;51.312;7.378;2023-06-22T09:37:56;97473.63;;;29.56;100.00
5872;BME280;2962;51.312;7.378;2023-06-22T09:40:22;97467.97;;;29.50;100.00
5872;BME280;2962;51.312;7.378;2023-06-22T09:42:47;97473.09;;;28.85;100.00
5872;BME280;2962;51.312;7.378;2023-06-22T09:45:13;97453.25;;;29.09;100.00
5872;BME280;2962;51.312;7.378;2023-06-22T09:47:38;97463.41;;;28.65;100.00
5872;BME280;2962;51.312;7.378;2023-06-22T09:50:04;97467.50;;;29.05;100.00
5872;BME280;2962;51.312;7.378;2023-06-22T09:52:29;97451.72;;;28.87;100.00
5872;BME280;2962;51.312;7.378;2023-06-22T09:54:55;97467.06;;;29.12;100.00
5872;BME280;2962;51.312;7.378;2023-06-22T09:57:20;97462.16;;;28.87;100.00
5872;BME280;2962;51.312;7.378;2023-06-22T09:59:45;97471.66;;;29.10;100.00
5872;BME280;2962;51.312;7.378;2023-06-22T10:02:10;97460.31;;;29.51;100.00
5872;BME280;2962;51.312;7.378;2023-06-22T10:04:36;97469.34;;;29.86;100.00
5872;BME280;2962;51.312;7.378;2023-06-22T10:07:02;97463.56;;;29.96;100.00
5872;BME280;2962;51.312;7.378;2023-06-22T10:09:27;97467.97;;;29.50;100.00
5872;BME280;2962;51.312;7.378;2023-06-22T10:11:53;97462.84;;;29.75;100.00
5872;BME280;2962;51.312;7.378;2023-06-22T10:14:18;97465.31;;;30.25;100.00
5872;BME280;2962;51.312;7.378;2023-06-22T10:16:44;97459.22;;;30.75;100.00
5872;BME280;2962;51.312;7.378;2023-06-22T10:19:09;97450.13;;;31.02;100.00
5872;BME280;2962;51.312;7.378;2023-06-22T10:21:34;97449.91;;;31.06;100.00
5872;BME280;2962;51.312;7.378;2023-06-22T10:24:00;97460.16;;;31.15;100.00
5872;BME280;2962;51.312;7.378;2023-06-22T10:26:33;97454.97;;;30.96;100.00
5872;BME280;2962;51.312;7.378;2023-06-22T10:28:59;97453.88;;;29.71;100.00
5872;BME280;2962;51.312;7.378;2023-06-22T10:31:25;97456.41;;;29.16;100.00
5872;BME280;2962;51.312;7.378;2023-06-22T10:33:50;97430.56;;;29.33;100.00
5872;BME280;2962;51.312;7.378;2023-06-22T10:36:15;97443.34;;;29.60;100.00
5872;BME280;2962;51.312;7.378;2023-06-22T10:38:41;97444.63;;;29.12;100.00
5872;BME280;2962;51.312;7.378;2023-06-22T10:41:06;97430.19;;;28.79;100.00
5872;BME280;2962;51.312;7.378;2023-06-22T10:43:31;97441.91;;;28.21;100.00
5872;BME280;2962;51.312;7.378;2023-06-22T10:45:57;97440.50;;;27.52;100.00
5872;BME280;2962;51.312;7.378;2023-06-22T10:48:25;97431.06;;;26.96;100.00
5872;BME280;2962;51.312;7.378;2023-06-22T10:50:50;97442.28;;;26.48;100.00
5872;BME280;2962;51.312;7.378;2023-06-22T10:53:15;97451.84;;;25.99;100.00
5872;BME280;2962;51.312;7.378;2023-06-22T10:55:41;97468.59;;;25.90;100.00
5872;BME280;2962;51.312;7.378;2023-06-22T10:58:06;97484.38;;;25.41;100.00
5872;BME280;2962;51.312;7.378;2023-06-22T11:00:32;97475.81;;;25.08;100.00
5872;BME280;2962;51.312;7.378;2023-06-22T11:02:57;97503.97;;;24.73;100.00
5872;BME280;2962;51.312;7.378;2023-06-22T11:05:23;97494.03;;;24.54;100.00
5872;BME280;2962;51.312;7.378;2023-06-22T11:07:48;97514.06;;;24.30;100.00
5872;BME280;2962;51.312;7.378;2023-06-22T11:10:14;97511.44;;;23.96;100.00
5872;BME280;2962;51.312;7.378;2023-06-22T11:12:40;97521.81;;;23.73;100.00
5872;BME280;2962;51.312;7.378;2023-06-22T11:15:06;97519.09;;;23.38;100.00
5872;BME280;2962;51.312;7.378;2023-06-22T11:17:31;97507.00;;;22.98;100.00
5872;BME280;2962;51.312;7.378;2023-06-22T11:19:56;97523.38;;;22.96;100.00
5872;BME280;2962;51.312;7.378;2023-06-22T11:22:22;97517.25;;;22.88;100.00
5872;BME280;2962;51.312;7.378;2023-06-22T11:24:47;97518.06;;;22.63;100.00
5872;BME280;2962;51.312;7.378;2023-06-22T11:27:13;97506.22;;;22.50;100.00
5872;BME280;2962;51.312;7.378;2023-06-22T11:29:38;97499.59;;;22.22;100.00
5872;BME280;2962;51.312;7.378;2023-06-22T11:32:06;97502.88;;;22.04;100.00
5872;BME280;2962;51.312;7.378;2023-06-22T11:34:32;97504.44;;;22.05;100.00
5872;BME280;2962;51.312;7.378;2023-06-22T11:36:57;97503.09;;;21.84;100.00
5872;BME280;2962;51.312;7.378;2023-06-22T11:39:22;97494.53;;;21.65;100.00
5872;BME280;2962;51.312;7.378;2023-06-22T11:41:47;97484.03;;;21.44;100.00
5872;BME280;2962;51.312;7.378;2023-06-22T11:44:13;97492.75;;;21.30;100.00
5872;BME280;2962;51.312;7.378;2023-06-22T11:46:38;97494.94;;;21.22;100.00
5872;BME280;2962;51.312;7.378;2023-06-22T11:49:04;97496.31;;;21.14;100.00
5872;BME280;2962;51.312;7.378;2023-06-22T11:51:30;97502.44;;;20.92;100.00
5872;BME280;2962;51.312;7.378;2023-06-22T11:53:57;97513.38;;;20.83;100.00
5872;BME280;2962;51.312;7.378;2023-06-22T11:56:22;97521.19;;;20.72;100.00
5872;BME280;2962;51.312;7.378;2023-06-22T11:58:48;97521.25;;;20.68;100.00
5872;BME280;2962;51.312;7.378;2023-06-22T12:01:13;97523.25;;;20.68;100.00
5872;BME280;2962;51.312;7.378;2023-06-22T12:03:40;97519.91;;;20.60;100.00
5872;BME280;2962;51.312;7.378;2023-06-22T12:06:05;97555.44;;;20.62;100.00
5872;BME280;2962;51.312;7.378;2023-06-22T12:08:30;97527.13;;;20.38;100.00
5872;BME280;2962;51.312;7.378;2023-06-22T12:10:56;97539.19;;;20.28;100.00
5872;BME280;2962;51.312;7.378;2023-06-22T12:13:21;97523.88;;;20.07;100.00
5872;BME280;2962;51.312;7.378;2023-06-22T12:15:46;97515.84;;;20.12;100.00
5872;BME280;2962;51.312;7.378;2023-06-22T12:18:12;97496.16;;;20.10;100.00
5872;BME280;2962;51.312;7.378;2023-06-22T12:20:39;97501.31;;;20.08;100.00
5872;BME280;2962;51.312;7.378;2023-06-22T12:23:07;97466.19;;;19.89;100.00
5872;BME280;2962;51.312;7.378;2023-06-22T12:25:33;97430.25;;;20.05;100.00
5872;BME280;2962;51.312;7.378;2023-06-22T12:27:58;97375.81;;;20.02;100.00
5872;BME280;2962;51.312;7.378;2023-06-22T12:30:24;97353.97;;;20.08;100.00
5872;BME280;2962;51.312;7.378;2023-06-22T12:32:49;97366.84;;;20.14;100.00
5872;BME280;2962;51.312;7.378;2023-06-22T12:35:15;97403.81;;;20.20;100.00
5872;BME280;2962;51.312;7.378;2023-06-22T12:37:41;97428.63;;;20.24;100.00
5872;BME280;2962;51.312;7.378;2023-06-22T12:40:07;97426.38;;;20.35;100.00
5872;BME280;2962;51.312;7.378;2023-06-22T12:42:33;97432.69;;;20.68;100.00
5872;BME280;2962;51.312;7.378;2023-06-22T12:44:58;97419.00;;;20.90;100.00
5872;BME280;2962;51.312;7.378;2023-06-22T12:47:23;97432.63;;;21.94;100.00
5872;BME280;2962;51.312;7.378;2023-06-22T12:49:49;97431.72;;;22.10;100.00
5872;BME280;2962;51.312;7.378;2023-06-22T12:52:15;97417.75;;;22.01;100.00
5872;BME280;2962;51.312;7.378;2023-06-22T12:54:40;97416.31;;;22.09;100.00
5872;BME280;2962;51.312;7.378;2023-06-22T12:57:06;97409.53;;;22.10;100.00
5872;BME280;2962;51.312;7.378;2023-06-22T12:59:34;97405.34;;;21.92;100.00
5872;BME280;2962;51.312;7.378;2023-06-22T13:01:59;97394.81;;;21.62;100.00
5872;BME280;2962;51.312;7.378;2023-06-22T13:04:25;97384.88;;;21.23;100.00
5872;BME280;2962;51.312;7.378;2023-06-22T13:06:50;97378.78;;;21.15;100.00